sensor_id;sensor_type;location;lat;lon;timestamp;P1;durP1;ratioP1;P2;durP2;ratioP2
59702;SDS011;45570;48.782;8.332;2023-02-28T00:01:49;4.45;;;3.10;;
59702;SDS011;45570;48.782;8.332;2023-02-28T00:04:18;6.05;;;3.35;;
59702;SDS011;45570;48.782;8.332;2023-02-28T00:06:46;5.38;;;3.10;;
59702;SDS011;45570;48.782;8.332;2023-02-28T00:09:15;5.18;;;3.50;;
59702;SDS011;45570;48.782;8.332;2023-02-28T00:11:44;3.88;;;3.13;;
59702;SDS011;45570;48.782;8.332;2023-02-28T00:14:12;7.13;;;3.22;;
59702;SDS011;45570;48.782;8.332;2023-02-28T00:16:42;4.20;;;3.35;;
59702;SDS011;45570;48.782;8.332;2023-02-28T00:19:11;5.47;;;3.53;;
59702;SDS011;45570;48.782;8.332;2023-02-28T00:21:40;5.93;;;3.33;;
59702;SDS011;45570;48.782;8.332;2023-02-28T00:24:09;5.40;;;3.05;;
59702;SDS011;45570;48.782;8.332;2023-02-28T00:26:38;3.50;;;2.92;;
59702;SDS011;45570;48.782;8.332;2023-02-28T00:29:06;5.10;;;3.80;;
59702;SDS011;45570;48.782;8.332;2023-02-28T00:31:35;5.00;;;2.83;;
59702;SDS011;45570;48.782;8.332;2023-02-28T00:34:06;9.25;;;3.28;;
59702;SDS011;45570;48.782;8.332;2023-02-28T00:36:34;5.80;;;4.07;;
59702;SDS011;45570;48.782;8.332;2023-02-28T00:39:03;5.85;;;3.33;;
59702;SDS011;45570;48.782;8.332;2023-02-28T00:41:32;6.75;;;3.22;;
59702;SDS011;45570;48.782;8.332;2023-02-28T00:44:00;5.03;;;2.90;;
59702;SDS011;45570;48.782;8.332;2023-02-28T00:46:31;6.38;;;3.47;;
59702;SDS011;45570;48.782;8.332;2023-02-28T00:48:59;4.18;;;2.92;;
59702;SDS011;45570;48.782;8.332;2023-02-28T00:51:29;4.55;;;3.05;;
59702;SDS011;45570;48.782;8.332;2023-02-28T00:53:58;4.97;;;3.28;;
59702;SDS011;45570;48.782;8.332;2023-02-28T00:56:27;7.32;;;3.63;;
59702;SDS011;45570;48.782;8.332;2023-02-28T00:58:55;4.85;;;3.50;;
59702;SDS011;45570;48.782;8.332;2023-02-28T01:01:24;7.18;;;3.67;;
59702;SDS011;45570;48.782;8.332;2023-02-28T01:03:53;5.60;;;3.97;;
59702;SDS011;45570;48.782;8.332;2023-02-28T01:06:22;6.32;;;3.20;;
59702;SDS011;45570;48.782;8.332;2023-02-28T01:08:52;5.20;;;3.53;;
59702;SDS011;45570;48.782;8.332;2023-02-28T01:11:21;7.20;;;3.90;;
59702;SDS011;45570;48.782;8.332;2023-02-28T01:13:52;4.95;;;3.60;;
59702;SDS011;45570;48.782;8.332;2023-02-28T01:16:20;6.07;;;4.15;;
59702;SDS011;45570;48.782;8.332;2023-02-28T01:18:49;7.63;;;4.00;;
59702;SDS011;45570;48.782;8.332;2023-02-28T01:21:18;6.65;;;3.92;;
59702;SDS011;45570;48.782;8.332;2023-02-28T01:23:48;7.35;;;3.92;;
59702;SDS011;45570;48.782;8.332;2023-02-28T01:26:21;7.30;;;4.03;;
59702;SDS011;45570;48.782;8.332;2023-02-28T01:28:50;7.05;;;4.50;;
59702;SDS011;45570;48.782;8.332;2023-02-28T01:31:20;7.25;;;4.15;;
59702;SDS011;45570;48.782;8.332;2023-02-28T01:33:49;6.72;;;4.18;;
59702;SDS011;45570;48.782;8.332;2023-02-28T01:36:18;5.93;;;3.70;;
59702;SDS011;45570;48.782;8.332;2023-02-28T01:38:49;9.07;;;4.40;;
59702;SDS011;45570;48.782;8.332;2023-02-28T01:41:21;8.02;;;4.20;;
59702;SDS011;45570;48.782;8.332;2023-02-28T01:43:54;6.22;;;4.20;;
59702;SDS011;45570;48.782;8.332;2023-02-28T01:46:25;7.18;;;4.07;;
59702;SDS011;45570;48.782;8.332;2023-02-28T01:48:54;7.63;;;4.60;;
59702;SDS011;45570;48.782;8.332;2023-02-28T01:51:29;9.55;;;4.40;;
59702;SDS011;45570;48.782;8.332;2023-02-28T01:54:03;6.82;;;4.03;;
59702;SDS011;45570;48.782;8.332;2023-02-28T01:56:42;8.27;;;4.65;;
59702;SDS011;45570;48.782;8.332;2023-02-28T01:59:14;8.20;;;4.70;;
59702;SDS011;45570;48.782;8.332;2023-02-28T02:01:49;7.50;;;4.40;;
59702;SDS011;45570;48.782;8.332;2023-02-28T02:04:18;7.13;;;4.60;;
59702;SDS011;45570;48.782;8.332;2023-02-28T02:06:49;7.32;;;4.88;;
59702;SDS011;45570;48.782;8.332;2023-02-28T02:09:18;9.05;;;4.85;;
59702;SDS011;45570;48.782;8.332;2023-02-28T02:11:48;7.65;;;5.20;;
59702;SDS011;45570;48.782;8.332;2023-02-28T02:14:30;7.30;;;4.78;;
59702;SDS011;45570;48.782;8.332;2023-02-28T02:17:12;7.82;;;5.50;;
59702;SDS011;45570;48.782;8.332;2023-02-28T02:23:12;6.10;;;5.03;;
59702;SDS011;45570;48.782;8.332;2023-02-28T02:26:19;11.60;;;5.35;;
59702;SDS011;45570;48.782;8.332;2023-02-28T02:34:53;10.05;;;5.88;;
59702;SDS011;45570;48.782;8.332;2023-02-28T02:37:28;8.38;;;5.80;;
59702;SDS011;45570;48.782;8.332;2023-02-28T02:40:03;8.50;;;5.85;;
59702;SDS011;45570;48.782;8.332;2023-02-28T02:42:39;11.65;;;5.32;;
59702;SDS011;45570;48.782;8.332;2023-02-28T02:45:14;8.70;;;5.00;;
59702;SDS011;45570;48.782;8.332;2023-02-28T02:47:47;10.45;;;6.18;;
59702;SDS011;45570;48.782;8.332;2023-02-28T02:50:19;7.32;;;5.70;;
59702;SDS011;45570;48.782;8.332;2023-02-28T02:52:53;7.47;;;5.80;;
59702;SDS011;45570;48.782;8.332;2023-02-28T02:55:27;9.05;;;6.13;;
59702;SDS011;45570;48.782;8.332;2023-02-28T02:57:58;9.90;;;5.70;;
59702;SDS011;45570;48.782;8.332;2023-02-28T03:00:30;7.85;;;6.05;;
59702;SDS011;45570;48.782;8.332;2023-02-28T03:03:02;8.65;;;5.63;;
59702;SDS011;45570;48.782;8.332;2023-02-28T03:05:35;9.70;;;6.22;;
59702;SDS011;45570;48.782;8.332;2023-02-28T03:08:10;8.52;;;5.63;;
59702;SDS011;45570;48.782;8.332;2023-02-28T03:10:40;8.02;;;6.05;;
59702;SDS011;45570;48.782;8.332;2023-02-28T03:16:22;9.27;;;5.80;;
59702;SDS011;45570;48.782;8.332;2023-02-28T03:19:09;9.73;;;5.85;;
59702;SDS011;45570;48.782;8.332;2023-02-28T03:21:56;11.48;;;6.57;;
59702;SDS011;45570;48.782;8.332;2023-02-28T03:24:34;11.18;;;6.53;;
59702;SDS011;45570;48.782;8.332;2023-02-28T03:27:10;10.00;;;6.30;;
59702;SDS011;45570;48.782;8.332;2023-02-28T03:29:43;10.30;;;6.95;;
59702;SDS011;45570;48.782;8.332;2023-02-28T03:32:17;10.40;;;7.43;;
59702;SDS011;45570;48.782;8.332;2023-02-28T03:34:51;11.43;;;6.57;;
59702;SDS011;45570;48.782;8.332;2023-02-28T03:37:25;10.43;;;6.60;;
59702;SDS011;45570;48.782;8.332;2023-02-28T03:39:57;8.95;;;6.80;;
59702;SDS011;45570;48.782;8.332;2023-02-28T03:42:33;9.90;;;6.30;;
59702;SDS011;45570;48.782;8.332;2023-02-28T03:45:05;10.75;;;6.65;;
59702;SDS011;45570;48.782;8.332;2023-02-28T03:47:40;10.10;;;6.03;;
59702;SDS011;45570;48.782;8.332;2023-02-28T03:50:14;11.60;;;6.97;;
59702;SDS011;45570;48.782;8.332;2023-02-28T03:52:50;9.48;;;6.32;;
59702;SDS011;45570;48.782;8.332;2023-02-28T03:55:28;10.23;;;6.95;;
59702;SDS011;45570;48.782;8.332;2023-02-28T03:58:01;11.50;;;7.10;;
59702;SDS011;45570;48.782;8.332;2023-02-28T04:00:37;13.18;;;7.50;;
59702;SDS011;45570;48.782;8.332;2023-02-28T04:03:11;17.10;;;7.30;;
59702;SDS011;45570;48.782;8.332;2023-02-28T04:05:50;12.82;;;7.50;;
59702;SDS011;45570;48.782;8.332;2023-02-28T04:08:22;11.43;;;7.32;;
59702;SDS011;45570;48.782;8.332;2023-02-28T04:10:52;11.50;;;7.93;;
59702;SDS011;45570;48.782;8.332;2023-02-28T04:13:24;11.48;;;7.05;;
59702;SDS011;45570;48.782;8.332;2023-02-28T04:15:52;10.90;;;7.47;;
59702;SDS011;45570;48.782;8.332;2023-02-28T04:18:21;12.38;;;7.28;;
59702;SDS011;45570;48.782;8.332;2023-02-28T04:20:50;11.63;;;6.97;;
59702;SDS011;45570;48.782;8.332;2023-02-28T04:23:18;10.80;;;7.63;;
59702;SDS011;45570;48.782;8.332;2023-02-28T04:25:48;12.80;;;7.60;;
59702;SDS011;45570;48.782;8.332;2023-02-28T04:28:17;11.43;;;7.88;;
59702;SDS011;45570;48.782;8.332;2023-02-28T04:30:46;11.18;;;7.25;;
59702;SDS011;45570;48.782;8.332;2023-02-28T04:33:14;16.45;;;8.45;;
59702;SDS011;45570;48.782;8.332;2023-02-28T04:35:43;11.85;;;8.35;;
59702;SDS011;45570;48.782;8.332;2023-02-28T04:38:11;11.00;;;7.82;;
59702;SDS011;45570;48.782;8.332;2023-02-28T04:40:40;13.30;;;8.35;;
59702;SDS011;45570;48.782;8.332;2023-02-28T04:43:10;16.88;;;7.88;;
59702;SDS011;45570;48.782;8.332;2023-02-28T04:45:38;13.43;;;7.50;;
59702;SDS011;45570;48.782;8.332;2023-02-28T04:48:07;14.85;;;8.23;;
59702;SDS011;45570;48.782;8.332;2023-02-28T04:50:35;12.43;;;8.10;;
59702;SDS011;45570;48.782;8.332;2023-02-28T04:53:04;10.07;;;7.38;;
59702;SDS011;45570;48.782;8.332;2023-02-28T04:55:32;15.38;;;8.93;;
59702;SDS011;45570;48.782;8.332;2023-02-28T04:58:01;12.60;;;8.07;;
59702;SDS011;45570;48.782;8.332;2023-02-28T05:00:31;12.70;;;7.68;;
59702;SDS011;45570;48.782;8.332;2023-02-28T05:03:00;17.13;;;8.52;;
59702;SDS011;45570;48.782;8.332;2023-02-28T05:05:28;11.57;;;7.70;;
59702;SDS011;45570;48.782;8.332;2023-02-28T05:07:57;13.30;;;8.30;;
59702;SDS011;45570;48.782;8.332;2023-02-28T05:10:26;13.57;;;8.40;;
59702;SDS011;45570;48.782;8.332;2023-02-28T05:12:55;13.20;;;8.38;;
59702;SDS011;45570;48.782;8.332;2023-02-28T05:15:23;13.02;;;8.13;;
59702;SDS011;45570;48.782;8.332;2023-02-28T05:17:53;13.82;;;8.25;;
59702;SDS011;45570;48.782;8.332;2023-02-28T05:20:22;12.68;;;8.60;;
59702;SDS011;45570;48.782;8.332;2023-02-28T05:22:50;15.18;;;8.23;;
59702;SDS011;45570;48.782;8.332;2023-02-28T05:25:20;13.27;;;8.38;;
59702;SDS011;45570;48.782;8.332;2023-02-28T05:27:49;14.25;;;8.88;;
59702;SDS011;45570;48.782;8.332;2023-02-28T05:30:18;12.13;;;8.55;;
59702;SDS011;45570;48.782;8.332;2023-02-28T05:32:49;15.07;;;8.85;;
59702;SDS011;45570;48.782;8.332;2023-02-28T05:35:20;12.75;;;8.02;;
59702;SDS011;45570;48.782;8.332;2023-02-28T05:37:48;14.40;;;8.52;;
59702;SDS011;45570;48.782;8.332;2023-02-28T05:40:17;16.23;;;8.40;;
59702;SDS011;45570;48.782;8.332;2023-02-28T05:42:47;15.98;;;8.45;;
59702;SDS011;45570;48.782;8.332;2023-02-28T05:45:15;12.68;;;8.68;;
59702;SDS011;45570;48.782;8.332;2023-02-28T05:47:44;14.32;;;8.95;;
59702;SDS011;45570;48.782;8.332;2023-02-28T05:50:12;16.90;;;9.98;;
59702;SDS011;45570;48.782;8.332;2023-02-28T05:52:42;16.42;;;9.15;;
59702;SDS011;45570;48.782;8.332;2023-02-28T05:55:11;15.20;;;8.93;;
59702;SDS011;45570;48.782;8.332;2023-02-28T05:57:39;12.73;;;9.13;;
59702;SDS011;45570;48.782;8.332;2023-02-28T06:00:09;18.20;;;9.68;;
59702;SDS011;45570;48.782;8.332;2023-02-28T06:02:38;15.60;;;8.63;;
59702;SDS011;45570;48.782;8.332;2023-02-28T06:05:09;14.48;;;9.23;;
59702;SDS011;45570;48.782;8.332;2023-02-28T06:07:41;15.18;;;9.40;;
59702;SDS011;45570;48.782;8.332;2023-02-28T06:10:11;15.20;;;8.95;;
59702;SDS011;45570;48.782;8.332;2023-02-28T06:12:40;16.30;;;9.90;;
59702;SDS011;45570;48.782;8.332;2023-02-28T06:15:10;16.52;;;9.25;;
59702;SDS011;45570;48.782;8.332;2023-02-28T06:17:40;15.02;;;9.57;;
59702;SDS011;45570;48.782;8.332;2023-02-28T06:20:09;14.93;;;8.88;;
59702;SDS011;45570;48.782;8.332;2023-02-28T06:22:40;13.43;;;8.73;;
59702;SDS011;45570;48.782;8.332;2023-02-28T06:25:10;12.98;;;7.97;;
59702;SDS011;45570;48.782;8.332;2023-02-28T06:27:39;15.65;;;9.73;;
59702;SDS011;45570;48.782;8.332;2023-02-28T06:30:07;14.00;;;8.85;;
59702;SDS011;45570;48.782;8.332;2023-02-28T06:32:37;19.02;;;9.30;;
59702;SDS011;45570;48.782;8.332;2023-02-28T06:35:06;15.95;;;9.73;;
59702;SDS011;45570;48.782;8.332;2023-02-28T06:37:35;16.15;;;9.77;;
59702;SDS011;45570;48.782;8.332;2023-02-28T06:40:07;13.40;;;9.75;;
59702;SDS011;45570;48.782;8.332;2023-02-28T06:42:38;17.52;;;9.65;;
59702;SDS011;45570;48.782;8.332;2023-02-28T06:45:07;16.33;;;9.60;;
59702;SDS011;45570;48.782;8.332;2023-02-28T06:47:37;18.13;;;10.20;;
59702;SDS011;45570;48.782;8.332;2023-02-28T06:50:06;15.95;;;9.50;;
59702;SDS011;45570;48.782;8.332;2023-02-28T06:52:36;14.30;;;9.10;;
59702;SDS011;45570;48.782;8.332;2023-02-28T06:55:05;15.75;;;9.95;;
59702;SDS011;45570;48.782;8.332;2023-02-28T06:57:35;16.45;;;9.35;;
59702;SDS011;45570;48.782;8.332;2023-02-28T07:00:06;17.50;;;9.48;;
59702;SDS011;45570;48.782;8.332;2023-02-28T07:02:36;16.85;;;9.85;;
59702;SDS011;45570;48.782;8.332;2023-02-28T07:05:05;16.55;;;9.38;;
59702;SDS011;45570;48.782;8.332;2023-02-28T07:07:34;13.65;;;9.55;;
59702;SDS011;45570;48.782;8.332;2023-02-28T07:10:05;18.70;;;10.52;;
59702;SDS011;45570;48.782;8.332;2023-02-28T07:12:34;15.48;;;9.68;;
59702;SDS011;45570;48.782;8.332;2023-02-28T07:15:04;19.55;;;9.77;;
59702;SDS011;45570;48.782;8.332;2023-02-28T07:17:35;15.38;;;10.05;;
59702;SDS011;45570;48.782;8.332;2023-02-28T07:20:03;21.63;;;10.85;;
59702;SDS011;45570;48.782;8.332;2023-02-28T07:22:33;16.63;;;9.27;;
59702;SDS011;45570;48.782;8.332;2023-02-28T07:25:01;19.05;;;10.35;;
59702;SDS011;45570;48.782;8.332;2023-02-28T07:27:30;14.80;;;9.40;;
59702;SDS011;45570;48.782;8.332;2023-02-28T07:29:58;16.83;;;9.00;;
59702;SDS011;45570;48.782;8.332;2023-02-28T07:32:31;15.05;;;9.85;;
59702;SDS011;45570;48.782;8.332;2023-02-28T07:34:59;17.35;;;10.15;;
59702;SDS011;45570;48.782;8.332;2023-02-28T07:37:28;23.70;;;11.15;;
59702;SDS011;45570;48.782;8.332;2023-02-28T07:39:58;16.35;;;10.07;;
59702;SDS011;45570;48.782;8.332;2023-02-28T07:42:26;16.30;;;10.63;;
59702;SDS011;45570;48.782;8.332;2023-02-28T07:44:54;16.88;;;9.77;;
59702;SDS011;45570;48.782;8.332;2023-02-28T07:47:23;20.35;;;10.07;;
59702;SDS011;45570;48.782;8.332;2023-02-28T07:49:54;15.38;;;9.50;;
59702;SDS011;45570;48.782;8.332;2023-02-28T07:52:23;15.50;;;9.57;;
59702;SDS011;45570;48.782;8.332;2023-02-28T07:54:52;16.73;;;10.10;;
59702;SDS011;45570;48.782;8.332;2023-02-28T07:57:20;15.98;;;9.77;;
59702;SDS011;45570;48.782;8.332;2023-02-28T07:59:50;16.17;;;9.82;;
59702;SDS011;45570;48.782;8.332;2023-02-28T08:02:18;16.30;;;9.82;;
59702;SDS011;45570;48.782;8.332;2023-02-28T08:04:47;17.70;;;10.07;;
59702;SDS011;45570;48.782;8.332;2023-02-28T08:07:18;17.17;;;10.30;;
59702;SDS011;45570;48.782;8.332;2023-02-28T08:09:47;15.70;;;9.73;;
59702;SDS011;45570;48.782;8.332;2023-02-28T08:12:15;17.80;;;9.50;;
59702;SDS011;45570;48.782;8.332;2023-02-28T08:14:44;18.77;;;10.10;;
59702;SDS011;45570;48.782;8.332;2023-02-28T08:17:12;19.48;;;10.77;;
59702;SDS011;45570;48.782;8.332;2023-02-28T08:19:41;16.95;;;9.52;;
59702;SDS011;45570;48.782;8.332;2023-02-28T08:22:09;16.90;;;9.95;;
59702;SDS011;45570;48.782;8.332;2023-02-28T08:24:39;24.55;;;10.82;;
59702;SDS011;45570;48.782;8.332;2023-02-28T08:27:09;19.92;;;10.35;;
59702;SDS011;45570;48.782;8.332;2023-02-28T08:29:38;16.60;;;9.25;;
59702;SDS011;45570;48.782;8.332;2023-02-28T08:32:06;18.30;;;10.57;;
59702;SDS011;45570;48.782;8.332;2023-02-28T08:34:54;15.75;;;8.82;;
59702;SDS011;45570;48.782;8.332;2023-02-28T08:37:22;16.08;;;9.25;;
59702;SDS011;45570;48.782;8.332;2023-02-28T08:39:52;19.98;;;10.35;;
59702;SDS011;45570;48.782;8.332;2023-02-28T08:42:22;15.52;;;10.20;;
59702;SDS011;45570;48.782;8.332;2023-02-28T08:44:50;18.98;;;10.60;;
59702;SDS011;45570;48.782;8.332;2023-02-28T08:47:19;18.27;;;10.85;;
59702;SDS011;45570;48.782;8.332;2023-02-28T08:49:47;17.70;;;10.57;;
59702;SDS011;45570;48.782;8.332;2023-02-28T08:52:16;17.83;;;10.43;;
59702;SDS011;45570;48.782;8.332;2023-02-28T08:54:44;18.02;;;10.55;;
59702;SDS011;45570;48.782;8.332;2023-02-28T08:57:14;17.02;;;10.00;;
59702;SDS011;45570;48.782;8.332;2023-02-28T08:59:43;19.92;;;10.10;;
59702;SDS011;45570;48.782;8.332;2023-02-28T09:02:12;16.88;;;10.40;;
59702;SDS011;45570;48.782;8.332;2023-02-28T09:04:41;19.33;;;10.25;;
59702;SDS011;45570;48.782;8.332;2023-02-28T09:07:11;18.17;;;10.18;;
59702;SDS011;45570;48.782;8.332;2023-02-28T09:09:40;15.43;;;9.40;;
59702;SDS011;45570;48.782;8.332;2023-02-28T09:12:22;18.92;;;10.48;;
59702;SDS011;45570;48.782;8.332;2023-02-28T09:14:51;17.80;;;9.77;;
59702;SDS011;45570;48.782;8.332;2023-02-28T09:17:20;20.23;;;10.43;;
59702;SDS011;45570;48.782;8.332;2023-02-28T09:19:48;14.13;;;9.35;;
59702;SDS011;45570;48.782;8.332;2023-02-28T09:22:17;18.10;;;10.45;;
59702;SDS011;45570;48.782;8.332;2023-02-28T09:24:46;18.20;;;10.43;;
59702;SDS011;45570;48.782;8.332;2023-02-28T09:27:14;18.70;;;10.63;;
59702;SDS011;45570;48.782;8.332;2023-02-28T09:29:44;16.98;;;10.32;;
59702;SDS011;45570;48.782;8.332;2023-02-28T09:32:12;18.70;;;9.82;;
59702;SDS011;45570;48.782;8.332;2023-02-28T09:34:41;18.60;;;11.10;;
59702;SDS011;45570;48.782;8.332;2023-02-28T09:37:10;18.95;;;10.55;;
59702;SDS011;45570;48.782;8.332;2023-02-28T09:39:38;19.33;;;9.88;;
59702;SDS011;45570;48.782;8.332;2023-02-28T09:42:11;15.82;;;10.23;;
59702;SDS011;45570;48.782;8.332;2023-02-28T09:44:50;21.25;;;11.32;;
59702;SDS011;45570;48.782;8.332;2023-02-28T09:47:21;19.35;;;10.68;;
59702;SDS011;45570;48.782;8.332;2023-02-28T09:49:56;17.88;;;10.82;;
59702;SDS011;45570;48.782;8.332;2023-02-28T09:52:30;19.13;;;12.02;;
59702;SDS011;45570;48.782;8.332;2023-02-28T09:55:00;18.02;;;11.23;;
59702;SDS011;45570;48.782;8.332;2023-02-28T09:57:43;24.10;;;11.82;;
59702;SDS011;45570;48.782;8.332;2023-02-28T10:00:15;17.08;;;10.55;;
59702;SDS011;45570;48.782;8.332;2023-02-28T10:02:49;20.38;;;11.75;;
59702;SDS011;45570;48.782;8.332;2023-02-28T10:05:30;18.08;;;10.88;;
59702;SDS011;45570;48.782;8.332;2023-02-28T10:08:05;20.77;;;12.50;;
59702;SDS011;45570;48.782;8.332;2023-02-28T10:10:40;21.75;;;10.90;;
59702;SDS011;45570;48.782;8.332;2023-02-28T10:13:14;17.33;;;11.23;;
59702;SDS011;45570;48.782;8.332;2023-02-28T10:15:51;18.85;;;11.07;;
59702;SDS011;45570;48.782;8.332;2023-02-28T10:18:24;19.13;;;11.05;;
59702;SDS011;45570;48.782;8.332;2023-02-28T10:20:55;16.38;;;10.23;;
59702;SDS011;45570;48.782;8.332;2023-02-28T10:23:25;18.70;;;10.70;;
59702;SDS011;45570;48.782;8.332;2023-02-28T10:25:57;19.88;;;11.18;;
59702;SDS011;45570;48.782;8.332;2023-02-28T10:28:28;15.75;;;10.80;;
59702;SDS011;45570;48.782;8.332;2023-02-28T10:31:00;18.90;;;11.18;;
59702;SDS011;45570;48.782;8.332;2023-02-28T10:33:30;21.33;;;12.68;;
59702;SDS011;45570;48.782;8.332;2023-02-28T10:36:01;18.85;;;11.52;;
59702;SDS011;45570;48.782;8.332;2023-02-28T10:38:33;19.08;;;11.65;;
59702;SDS011;45570;48.782;8.332;2023-02-28T10:41:04;16.35;;;10.43;;
59702;SDS011;45570;48.782;8.332;2023-02-28T10:43:34;20.30;;;11.43;;
59702;SDS011;45570;48.782;8.332;2023-02-28T10:46:09;19.52;;;11.95;;
59702;SDS011;45570;48.782;8.332;2023-02-28T10:49:00;18.55;;;11.90;;
59702;SDS011;45570;48.782;8.332;2023-02-28T10:51:34;27.73;;;11.25;;
59702;SDS011;45570;48.782;8.332;2023-02-28T10:54:04;21.70;;;11.55;;
59702;SDS011;45570;48.782;8.332;2023-02-28T10:56:42;20.73;;;12.00;;
59702;SDS011;45570;48.782;8.332;2023-02-28T10:59:23;18.27;;;12.07;;
59702;SDS011;45570;48.782;8.332;2023-02-28T11:01:57;19.88;;;11.13;;
59702;SDS011;45570;48.782;8.332;2023-02-28T11:04:33;23.08;;;12.93;;
59702;SDS011;45570;48.782;8.332;2023-02-28T11:07:15;20.85;;;11.43;;
59702;SDS011;45570;48.782;8.332;2023-02-28T11:09:50;25.02;;;12.48;;
59702;SDS011;45570;48.782;8.332;2023-02-28T11:12:21;19.38;;;11.20;;
59702;SDS011;45570;48.782;8.332;2023-02-28T11:14:52;22.42;;;12.52;;
59702;SDS011;45570;48.782;8.332;2023-02-28T11:17:25;18.90;;;11.90;;
59702;SDS011;45570;48.782;8.332;2023-02-28T11:19:56;19.15;;;11.55;;
59702;SDS011;45570;48.782;8.332;2023-02-28T11:22:30;18.70;;;11.40;;
59702;SDS011;45570;48.782;8.332;2023-02-28T11:25:03;18.25;;;11.82;;
59702;SDS011;45570;48.782;8.332;2023-02-28T11:30:25;18.35;;;12.07;;
59702;SDS011;45570;48.782;8.332;2023-02-28T11:33:00;18.25;;;12.05;;
59702;SDS011;45570;48.782;8.332;2023-02-28T11:35:46;20.13;;;12.80;;
59702;SDS011;45570;48.782;8.332;2023-02-28T11:38:17;19.80;;;12.20;;
59702;SDS011;45570;48.782;8.332;2023-02-28T11:40:46;16.70;;;11.32;;
59702;SDS011;45570;48.782;8.332;2023-02-28T11:43:24;23.77;;;12.38;;
59702;SDS011;45570;48.782;8.332;2023-02-28T11:46:06;21.67;;;11.82;;
59702;SDS011;45570;48.782;8.332;2023-02-28T11:48:47;20.55;;;11.70;;
59702;SDS011;45570;48.782;8.332;2023-02-28T11:51:27;18.90;;;11.80;;
59702;SDS011;45570;48.782;8.332;2023-02-28T11:54:13;17.20;;;11.10;;
59702;SDS011;45570;48.782;8.332;2023-02-28T11:56:53;18.63;;;10.85;;
59702;SDS011;45570;48.782;8.332;2023-02-28T11:59:30;17.58;;;11.57;;
59702;SDS011;45570;48.782;8.332;2023-02-28T12:07:55;14.70;;;10.13;;
59702;SDS011;45570;48.782;8.332;2023-02-28T12:10:35;15.25;;;10.93;;
59702;SDS011;45570;48.782;8.332;2023-02-28T12:13:21;16.73;;;11.10;;
59702;SDS011;45570;48.782;8.332;2023-02-28T12:15:59;19.58;;;11.50;;
59702;SDS011;45570;48.782;8.332;2023-02-28T12:18:49;17.95;;;11.48;;
59702;SDS011;45570;48.782;8.332;2023-02-28T12:21:34;16.17;;;10.40;;
59702;SDS011;45570;48.782;8.332;2023-02-28T12:24:22;17.77;;;11.00;;
59702;SDS011;45570;48.782;8.332;2023-02-28T12:27:07;14.48;;;10.85;;
59702;SDS011;45570;48.782;8.332;2023-02-28T12:29:41;19.00;;;10.73;;
59702;SDS011;45570;48.782;8.332;2023-02-28T12:32:14;15.88;;;10.88;;
59702;SDS011;45570;48.782;8.332;2023-02-28T12:34:49;19.25;;;11.40;;
59702;SDS011;45570;48.782;8.332;2023-02-28T12:37:25;19.70;;;11.60;;
59702;SDS011;45570;48.782;8.332;2023-02-28T12:40:00;14.13;;;10.20;;
59702;SDS011;45570;48.782;8.332;2023-02-28T12:42:33;17.90;;;11.20;;
59702;SDS011;45570;48.782;8.332;2023-02-28T12:45:10;17.40;;;11.27;;
59702;SDS011;45570;48.782;8.332;2023-02-28T12:47:45;14.90;;;10.40;;
59702;SDS011;45570;48.782;8.332;2023-02-28T12:50:18;16.63;;;11.80;;
59702;SDS011;45570;48.782;8.332;2023-02-28T12:52:51;18.27;;;10.80;;
59702;SDS011;45570;48.782;8.332;2023-02-28T12:55:25;15.63;;;11.45;;
59702;SDS011;45570;48.782;8.332;2023-02-28T12:58:07;15.27;;;10.18;;
59702;SDS011;45570;48.782;8.332;2023-02-28T13:00:46;14.18;;;9.85;;
59702;SDS011;45570;48.782;8.332;2023-02-28T13:06:56;17.98;;;11.25;;
59702;SDS011;45570;48.782;8.332;2023-02-28T13:09:37;13.87;;;10.43;;
59702;SDS011;45570;48.782;8.332;2023-02-28T13:12:12;17.05;;;11.50;;
59702;SDS011;45570;48.782;8.332;2023-02-28T13:17:10;19.58;;;11.98;;
59702;SDS011;45570;48.782;8.332;2023-02-28T13:19:41;18.10;;;11.25;;
59702;SDS011;45570;48.782;8.332;2023-02-28T13:22:17;18.50;;;11.35;;
59702;SDS011;45570;48.782;8.332;2023-02-28T13:25:15;14.95;;;11.07;;
59702;SDS011;45570;48.782;8.332;2023-02-28T13:44:06;14.07;;;10.82;;
59702;SDS011;45570;48.782;8.332;2023-02-28T13:46:37;14.75;;;11.68;;
59702;SDS011;45570;48.782;8.332;2023-02-28T13:49:49;14.05;;;10.32;;
59702;SDS011;45570;48.782;8.332;2023-02-28T13:52:21;18.27;;;11.85;;
59702;SDS011;45570;48.782;8.332;2023-02-28T13:55:12;15.85;;;11.70;;
59702;SDS011;45570;48.782;8.332;2023-02-28T13:58:00;16.38;;;12.07;;
59702;SDS011;45570;48.782;8.332;2023-02-28T14:00:52;15.98;;;11.00;;
59702;SDS011;45570;48.782;8.332;2023-02-28T14:03:38;16.75;;;11.40;;
59702;SDS011;45570;48.782;8.332;2023-02-28T14:06:22;19.73;;;11.90;;
59702;SDS011;45570;48.782;8.332;2023-02-28T14:08:57;19.17;;;12.50;;
59702;SDS011;45570;48.782;8.332;2023-02-28T14:11:31;16.73;;;11.15;;
59702;SDS011;45570;48.782;8.332;2023-02-28T14:14:01;15.88;;;11.40;;
59702;SDS011;45570;48.782;8.332;2023-02-28T14:16:35;18.98;;;11.38;;
59702;SDS011;45570;48.782;8.332;2023-02-28T14:19:10;15.55;;;10.85;;
59702;SDS011;45570;48.782;8.332;2023-02-28T14:21:47;16.65;;;10.90;;
59702;SDS011;45570;48.782;8.332;2023-02-28T14:24:39;25.88;;;17.90;;
59702;SDS011;45570;48.782;8.332;2023-02-28T14:27:31;16.33;;;11.68;;
59702;SDS011;45570;48.782;8.332;2023-02-28T14:33:14;17.17;;;11.80;;
59702;SDS011;45570;48.782;8.332;2023-02-28T14:35:56;21.42;;;14.15;;
59702;SDS011;45570;48.782;8.332;2023-02-28T14:38:36;17.52;;;11.85;;
59702;SDS011;45570;48.782;8.332;2023-02-28T14:41:15;15.30;;;11.85;;
59702;SDS011;45570;48.782;8.332;2023-02-28T14:43:48;30.42;;;19.20;;
59702;SDS011;45570;48.782;8.332;2023-02-28T14:46:19;20.52;;;11.75;;
59702;SDS011;45570;48.782;8.332;2023-02-28T14:48:49;16.77;;;11.40;;
59702;SDS011;45570;48.782;8.332;2023-02-28T14:51:19;18.75;;;11.35;;
59702;SDS011;45570;48.782;8.332;2023-02-28T14:53:50;17.67;;;11.32;;
59702;SDS011;45570;48.782;8.332;2023-02-28T14:56:25;21.05;;;14.52;;
59702;SDS011;45570;48.782;8.332;2023-02-28T14:59:03;19.75;;;11.75;;
59702;SDS011;45570;48.782;8.332;2023-02-28T15:01:33;17.67;;;11.70;;
59702;SDS011;45570;48.782;8.332;2023-02-28T15:04:03;18.08;;;11.15;;
59702;SDS011;45570;48.782;8.332;2023-02-28T15:06:33;18.83;;;13.05;;
59702;SDS011;45570;48.782;8.332;2023-02-28T15:09:08;22.25;;;14.27;;
59702;SDS011;45570;48.782;8.332;2023-02-28T15:11:39;16.60;;;10.98;;
59702;SDS011;45570;48.782;8.332;2023-02-28T15:14:13;17.15;;;11.80;;
59702;SDS011;45570;48.782;8.332;2023-02-28T15:16:48;21.95;;;11.45;;
59702;SDS011;45570;48.782;8.332;2023-02-28T15:19:21;20.00;;;11.38;;
59702;SDS011;45570;48.782;8.332;2023-02-28T15:21:54;18.40;;;11.90;;
59702;SDS011;45570;48.782;8.332;2023-02-28T15:24:30;20.17;;;14.30;;
59702;SDS011;45570;48.782;8.332;2023-02-28T15:27:05;16.35;;;11.98;;
59702;SDS011;45570;48.782;8.332;2023-02-28T15:29:37;21.50;;;15.35;;
59702;SDS011;45570;48.782;8.332;2023-02-28T15:32:21;15.85;;;10.80;;
59702;SDS011;45570;48.782;8.332;2023-02-28T15:34:53;21.98;;;14.40;;
59702;SDS011;45570;48.782;8.332;2023-02-28T15:40:15;17.15;;;12.90;;
59702;SDS011;45570;48.782;8.332;2023-02-28T15:43:02;14.98;;;11.95;;
59702;SDS011;45570;48.782;8.332;2023-02-28T15:45:34;21.67;;;14.20;;
59702;SDS011;45570;48.782;8.332;2023-02-28T15:48:17;17.73;;;12.90;;
59702;SDS011;45570;48.782;8.332;2023-02-28T15:50:49;20.75;;;13.45;;
59702;SDS011;45570;48.782;8.332;2023-02-28T15:53:21;23.88;;;12.75;;